createdAt,value
2019-01-20T00:00:18.062Z,38.93
2019-01-20T00:02:46.785Z,35.23
2019-01-20T00:05:15.963Z,39.70
2019-01-20T00:07:44.860Z,42.50
2019-01-20T00:10:13.826Z,39.53
2019-01-20T00:12:42.442Z,39.23
2019-01-20T00:15:14.081Z,44.00
2019-01-20T00:17:42.820Z,40.50
2019-01-20T00:20:11.669Z,35.97
2019-01-20T00:22:41.406Z,53.52
2019-01-20T00:25:10.849Z,40.13
2019-01-20T00:27:40.094Z,37.90
2019-01-20T00:30:12.097Z,36.90
2019-01-20T00:32:40.784Z,33.33
2019-01-20T00:35:09.513Z,33.70
2019-01-20T00:37:38.226Z,32.47
2019-01-20T00:40:10.359Z,32.37
2019-01-20T00:42:39.037Z,29.00
2019-01-20T00:45:13.184Z,30.93
2019-01-20T00:47:41.904Z,30.33
2019-01-20T00:50:12.260Z,31.47
2019-01-20T00:52:40.922Z,31.60
2019-01-20T00:55:12.278Z,31.03
2019-01-20T00:57:41.435Z,30.47
2019-01-20T01:00:14.020Z,29.87
2019-01-20T01:02:42.748Z,31.70
2019-01-20T01:05:11.469Z,30.33
2019-01-20T01:07:40.247Z,32.57
2019-01-20T01:10:09.631Z,31.93
2019-01-20T01:12:38.689Z,46.20
2019-01-20T01:15:09.405Z,36.43
2019-01-20T01:17:38.144Z,31.40
2019-01-20T01:20:15.231Z,29.33
2019-01-20T01:22:43.941Z,26.23
2019-01-20T01:25:14.233Z,26.37
2019-01-20T01:27:42.913Z,27.37
2019-01-20T01:30:14.373Z,26.53
2019-01-20T01:32:43.072Z,26.47
2019-01-20T01:35:11.734Z,25.43
2019-01-20T01:37:40.426Z,26.93
2019-01-20T01:40:11.608Z,25.07
2019-01-20T01:42:40.366Z,26.63
2019-01-20T01:45:11.770Z,28.30
2019-01-20T01:47:41.638Z,30.10
2019-01-20T01:50:10.790Z,25.93
2019-01-20T01:52:39.503Z,24.37
2019-01-20T01:55:09.452Z,26.97
2019-01-20T01:57:38.145Z,25.43
2019-01-20T02:00:10.617Z,26.43
2019-01-20T02:02:39.327Z,28.80
2019-01-20T02:05:09.301Z,30.10
2019-01-20T02:07:38.152Z,27.80
2019-01-20T02:10:09.871Z,33.08
2019-01-20T02:12:39.911Z,37.47
2019-01-20T02:15:10.322Z,30.50
2019-01-20T02:17:38.979Z,31.17
2019-01-20T02:20:10.485Z,35.10
2019-01-20T02:22:39.220Z,39.77
2019-01-20T02:25:07.885Z,41.47
2019-01-20T02:27:36.545Z,40.37
2019-01-20T02:30:08.420Z,42.93
2019-01-20T02:32:37.080Z,42.83
2019-01-20T02:35:06.164Z,43.10
2019-01-20T02:37:34.868Z,38.80
2019-01-20T02:40:04.732Z,40.10
2019-01-20T02:42:33.402Z,39.83
2019-01-20T02:45:02.152Z,39.27
2019-01-20T02:47:30.771Z,37.47
2019-01-20T02:49:59.422Z,36.67
2019-01-20T02:52:29.060Z,34.87
2019-01-20T02:54:57.702Z,34.90
2019-01-20T02:57:26.385Z,32.23
2019-01-20T02:59:55.108Z,32.97
2019-01-20T03:02:23.768Z,43.90
2019-01-20T03:04:52.419Z,36.53
2019-01-20T03:07:21.179Z,34.00
2019-01-20T03:09:49.806Z,30.67
2019-01-20T03:12:18.468Z,33.20
2019-01-20T03:14:47.320Z,33.50
2019-01-20T03:17:15.936Z,35.97
2019-01-20T03:19:44.625Z,35.47
2019-01-20T03:22:13.356Z,38.27
2019-01-20T03:24:42.024Z,39.63
2019-01-20T03:27:10.719Z,38.33
2019-01-20T03:29:39.458Z,40.60
2019-01-20T03:32:08.111Z,41.37
2019-01-20T03:34:36.756Z,39.37
2019-01-20T03:37:05.476Z,38.97
2019-01-20T03:39:34.141Z,40.53
2019-01-20T03:42:02.896Z,41.20
2019-01-20T03:44:31.597Z,39.07
2019-01-20T03:47:01.950Z,39.40
2019-01-20T03:49:30.655Z,36.83
2019-01-20T03:51:59.372Z,38.47
2019-01-20T03:54:28.025Z,40.90
2019-01-20T03:56:56.817Z,41.47
2019-01-20T03:59:25.516Z,41.73
2019-01-20T04:01:54.184Z,35.67
2019-01-20T04:04:24.394Z,35.00
2019-01-20T04:06:53.103Z,31.73
2019-01-20T04:09:21.773Z,34.33
2019-01-20T04:11:53.138Z,34.83
2019-01-20T04:14:29.036Z,35.33
2019-01-20T04:17:05.249Z,31.93
2019-01-20T04:19:33.961Z,34.33
2019-01-20T04:22:02.629Z,34.07
2019-01-20T04:24:34.274Z,33.03
2019-01-20T04:27:04.546Z,33.83
2019-01-20T04:29:33.219Z,35.77
2019-01-20T04:32:01.903Z,38.10
2019-01-20T04:34:30.601Z,41.30
2019-01-20T04:36:59.290Z,35.33
2019-01-20T04:39:28.022Z,36.20
2019-01-20T04:41:59.506Z,36.37
2019-01-20T04:44:28.161Z,36.63
2019-01-20T04:46:58.667Z,37.07
2019-01-20T04:49:28.931Z,37.97
2019-01-20T04:51:57.592Z,36.90
2019-01-20T04:54:26.250Z,34.00
2019-01-20T04:56:55.068Z,34.17
2019-01-20T04:59:23.803Z,34.37
2019-01-20T05:01:52.518Z,35.43
2019-01-20T05:04:21.287Z,33.83
2019-01-20T05:06:49.912Z,36.97
2019-01-20T05:09:18.574Z,35.20
2019-01-20T05:11:47.321Z,35.90
2019-01-20T05:14:15.982Z,37.47
2019-01-20T05:16:44.679Z,35.30
2019-01-20T05:19:13.385Z,34.13
2019-01-20T05:21:42.036Z,39.48
2019-01-20T05:24:10.713Z,30.63
2019-01-20T05:26:39.427Z,29.33
2019-01-20T05:29:08.162Z,27.00
2019-01-20T05:31:36.856Z,23.30
2019-01-20T05:34:05.578Z,26.33
2019-01-20T05:36:34.297Z,23.50
2019-01-20T05:39:03.242Z,23.43
2019-01-20T05:41:31.956Z,25.77
2019-01-20T05:44:00.642Z,22.43
2019-01-20T05:46:29.371Z,21.47
2019-01-20T05:48:58.090Z,24.30
2019-01-20T05:51:26.856Z,24.73
2019-01-20T05:53:55.511Z,24.17
2019-01-20T05:56:24.249Z,25.93
2019-01-20T05:58:52.939Z,26.27
2019-01-20T06:01:21.621Z,26.50
2019-01-20T06:03:50.329Z,25.27
2019-01-20T06:06:20.531Z,25.40
2019-01-20T06:08:49.213Z,25.00
2019-01-20T06:11:17.930Z,26.73
2019-01-20T06:13:46.574Z,32.93
2019-01-20T06:16:15.250Z,33.50
2019-01-20T06:18:43.973Z,31.47
2019-01-20T06:21:12.734Z,28.60
2019-01-20T06:23:41.400Z,26.13
2019-01-20T06:26:10.153Z,26.83
2019-01-20T06:28:39.586Z,26.43
2019-01-20T06:31:08.284Z,23.47
2019-01-20T06:33:36.984Z,23.17
2019-01-20T06:36:05.627Z,25.23
2019-01-20T06:38:34.325Z,27.07
2019-01-20T06:41:03.021Z,26.37
2019-01-20T06:43:31.693Z,27.50
2019-01-20T06:46:00.325Z,27.67
2019-01-20T06:48:29.037Z,29.90
2019-01-20T06:50:57.915Z,33.17
2019-01-20T06:53:26.569Z,35.47
2019-01-20T06:55:55.322Z,32.97
2019-01-20T06:58:23.982Z,30.33
2019-01-20T07:00:52.651Z,29.83
2019-01-20T07:03:21.403Z,28.53
2019-01-20T07:05:50.068Z,25.87
2019-01-20T07:08:28.216Z,27.07
2019-01-20T07:12:14.343Z,23.77
2019-01-20T07:13:36.955Z,27.57
2019-01-20T07:16:05.558Z,24.60
2019-01-20T07:18:34.235Z,22.73
2019-01-20T07:28:04.470Z,30.97
2019-01-20T07:30:33.329Z,34.47
2019-01-20T07:32:58.957Z,31.77
2019-01-20T07:35:47.677Z,29.87
2019-01-20T07:38:15.547Z,27.03
2019-01-20T07:40:39.872Z,26.83
2019-01-20T07:43:08.546Z,24.50
2019-01-20T07:45:41.302Z,23.50
2019-01-20T07:48:15.400Z,23.60
2019-01-20T07:52:30.340Z,20.63
2019-01-20T07:53:23.327Z,19.23
2019-01-20T07:55:55.737Z,21.53
2019-01-20T08:01:02.856Z,26.12
2019-01-20T08:03:31.534Z,22.30
2019-01-20T08:06:00.219Z,22.27
2019-01-20T08:08:28.976Z,21.17
2019-01-20T08:11:10.002Z,21.90
2019-01-20T08:14:09.242Z,21.40
2019-01-20T08:16:37.958Z,22.27
2019-01-20T08:19:08.488Z,22.03
2019-01-20T08:21:37.188Z,21.30
2019-01-20T08:24:08.820Z,23.03
2019-01-20T08:26:37.551Z,45.07
2019-01-20T08:29:07.319Z,27.60
2019-01-20T08:31:36.039Z,32.75
2019-01-20T08:34:04.898Z,25.47
2019-01-20T08:36:35.907Z,24.57
2019-01-20T08:39:05.533Z,24.03
2019-01-20T08:41:34.341Z,25.27
2019-01-20T08:44:07.511Z,26.40
2019-01-20T08:46:39.281Z,26.77
2019-01-20T08:49:07.949Z,26.40
2019-01-20T08:51:36.677Z,25.87
2019-01-20T08:54:05.356Z,27.80
2019-01-20T08:56:34.052Z,26.17
2019-01-20T08:59:03.121Z,27.37
2019-01-20T09:01:34.939Z,25.73
2019-01-20T09:04:05.159Z,24.73
2019-01-20T09:06:33.844Z,26.70
2019-01-20T09:09:02.650Z,24.83
2019-01-20T09:11:31.325Z,22.97
2019-01-20T09:14:01.090Z,22.73
2019-01-20T09:16:29.757Z,20.87
2019-01-20T09:18:58.498Z,21.43
2019-01-20T09:21:27.140Z,22.53
2019-01-20T09:23:55.946Z,22.67
2019-01-20T09:26:24.708Z,21.47
2019-01-20T09:28:56.466Z,23.90
2019-01-20T09:31:25.121Z,23.43
2019-01-20T09:33:53.814Z,21.83
2019-01-20T09:36:22.540Z,23.10
2019-01-20T09:38:51.253Z,24.10
2019-01-20T09:41:19.966Z,21.43
2019-01-20T09:43:48.655Z,23.90
2019-01-20T09:46:17.311Z,22.77
2019-01-20T09:48:45.970Z,25.20
2019-01-20T09:51:14.748Z,23.63
2019-01-20T09:53:43.425Z,22.43
2019-01-20T09:56:12.086Z,22.00
2019-01-20T09:58:40.867Z,22.77
2019-01-20T10:01:09.545Z,23.17
2019-01-20T10:03:38.262Z,22.93
2019-01-20T10:06:06.885Z,21.47
2019-01-20T10:08:35.603Z,23.43
2019-01-20T10:11:12.009Z,27.40
2019-01-20T10:13:40.696Z,25.43
2019-01-20T10:16:09.371Z,24.63
2019-01-20T10:18:38.006Z,23.07
2019-01-20T10:21:06.703Z,25.27
2019-01-20T10:23:36.263Z,24.43
2019-01-20T10:26:04.923Z,25.17
2019-01-20T10:28:33.650Z,23.47
2019-01-20T10:31:02.347Z,22.43
2019-01-20T10:33:32.920Z,23.87
2019-01-20T10:36:02.162Z,21.50
2019-01-20T10:38:30.814Z,20.97
2019-01-20T10:40:59.481Z,21.07
2019-01-20T10:43:28.292Z,24.30
2019-01-20T10:45:56.942Z,25.60
2019-01-20T10:48:25.654Z,22.63
2019-01-20T10:50:54.388Z,22.25
2019-01-20T10:53:23.066Z,19.30
2019-01-20T10:55:51.690Z,20.97
2019-01-20T10:58:20.457Z,20.77
2019-01-20T11:00:49.164Z,21.27
2019-01-20T11:03:17.827Z,21.83
2019-01-20T11:05:46.559Z,20.23
2019-01-20T11:08:15.206Z,23.43
2019-01-20T11:10:45.534Z,23.70
2019-01-20T11:13:14.235Z,23.93
2019-01-20T11:15:42.897Z,21.47
2019-01-20T11:18:13.180Z,21.37
2019-01-20T11:20:41.949Z,25.20
2019-01-20T11:23:13.788Z,20.83
2019-01-20T11:25:42.525Z,20.53
2019-01-20T11:28:12.929Z,20.50
2019-01-20T11:30:41.618Z,21.20
2019-01-20T11:33:10.339Z,25.33
2019-01-20T11:35:39.102Z,21.30
2019-01-20T11:38:07.818Z,20.27
2019-01-20T11:40:36.500Z,20.37
2019-01-20T11:43:05.241Z,18.40
2019-01-20T11:45:33.850Z,19.33
2019-01-20T11:48:11.631Z,23.07
2019-01-20T11:50:40.360Z,20.13
2019-01-20T11:53:09.452Z,19.37
2019-01-20T11:55:48.397Z,20.70
2019-01-20T11:58:27.522Z,23.20
2019-01-20T12:00:52.490Z,20.47
2019-01-20T12:03:25.205Z,20.20
2019-01-20T12:05:57.840Z,17.97
2019-01-20T12:08:30.740Z,16.50
2019-01-20T12:11:05.178Z,17.73
2019-01-20T12:13:37.039Z,17.50
2019-01-20T12:16:05.705Z,18.97
2019-01-20T12:18:35.549Z,18.93
2019-01-20T12:21:04.301Z,17.93
2019-01-20T12:23:32.986Z,24.17
2019-01-20T12:26:03.253Z,20.43
2019-01-20T12:28:31.997Z,20.57
2019-01-20T12:31:06.227Z,36.93
2019-01-20T12:33:34.907Z,20.13
2019-01-20T12:36:03.621Z,20.80
2019-01-20T12:38:34.721Z,23.13
2019-01-20T12:41:09.722Z,19.20
2019-01-20T12:43:38.435Z,20.13
2019-01-20T12:46:07.100Z,22.77
2019-01-20T12:48:37.701Z,18.33
2019-01-20T12:51:06.795Z,18.87
2019-01-20T12:53:39.302Z,19.93
2019-01-20T12:56:08.163Z,18.20
2019-01-20T12:58:38.416Z,19.43
2019-01-20T13:01:10.222Z,17.97
2019-01-20T13:03:41.504Z,17.10
2019-01-20T13:06:11.721Z,18.27
2019-01-20T13:08:42.932Z,17.87
2019-01-20T13:11:13.275Z,19.60
2019-01-20T13:13:43.545Z,17.93
2019-01-20T13:16:12.218Z,17.83
2019-01-20T13:18:42.486Z,18.27
2019-01-20T13:21:11.152Z,18.87
2019-01-20T13:23:40.080Z,17.57
2019-01-20T13:26:08.935Z,17.07
2019-01-20T13:28:37.648Z,18.67
2019-01-20T13:31:09.081Z,18.03
2019-01-20T13:33:39.420Z,20.83
2019-01-20T13:36:08.137Z,20.77
2019-01-20T13:38:39.588Z,17.37
2019-01-20T13:41:11.147Z,19.73
2019-01-20T13:43:44.226Z,15.73
2019-01-20T13:46:14.506Z,25.93
2019-01-20T13:48:50.206Z,17.17
2019-01-20T13:51:18.903Z,16.53
2019-01-20T13:53:47.593Z,17.40
2019-01-20T13:56:22.018Z,16.73
2019-01-20T13:58:56.334Z,16.17
2019-01-20T14:01:41.997Z,14.90
2019-01-20T14:04:11.312Z,15.43
2019-01-20T14:06:40.090Z,16.87
2019-01-20T14:09:10.078Z,24.87
2019-01-20T14:11:43.201Z,23.50
2019-01-20T14:14:15.985Z,20.37
2019-01-20T14:16:48.601Z,16.73
2019-01-20T14:19:21.864Z,20.40
2019-01-20T14:21:50.929Z,16.90
2019-01-20T14:24:21.155Z,15.17
2019-01-20T14:26:49.815Z,15.93
2019-01-20T14:29:21.311Z,15.03
2019-01-20T14:31:49.993Z,16.27
2019-01-20T14:34:18.696Z,15.50
2019-01-20T14:36:50.201Z,13.83
2019-01-20T14:39:18.836Z,14.57
2019-01-20T14:41:47.516Z,14.63
2019-01-20T14:44:16.238Z,14.20
2019-01-20T14:46:44.868Z,15.37
2019-01-20T14:49:13.522Z,17.83
2019-01-20T14:51:42.241Z,17.37
2019-01-20T14:54:13.029Z,17.90
2019-01-20T14:56:41.946Z,15.43
2019-01-20T14:59:12.369Z,15.03
2019-01-20T15:01:40.996Z,15.37
2019-01-20T15:04:09.732Z,16.40
2019-01-20T15:06:38.425Z,15.07
2019-01-20T15:09:07.543Z,15.40
2019-01-20T15:11:38.812Z,20.70
2019-01-20T15:14:07.571Z,20.40
2019-01-20T15:16:36.636Z,19.00
2019-01-20T15:19:05.372Z,17.73
2019-01-20T15:21:35.025Z,19.60
2019-01-20T15:24:03.739Z,18.23
2019-01-20T15:26:32.390Z,19.53
2019-01-20T15:29:01.129Z,18.33
2019-01-20T15:31:29.807Z,15.97
2019-01-20T15:34:00.169Z,15.17
2019-01-20T15:36:28.859Z,17.07
2019-01-20T15:38:57.539Z,17.57
2019-01-20T15:41:26.222Z,14.27
2019-01-20T15:43:54.895Z,14.73
2019-01-20T15:46:23.603Z,13.90
2019-01-20T15:48:52.269Z,15.93
2019-01-20T15:51:21.097Z,19.50
2019-01-20T15:53:49.716Z,20.07
2019-01-20T15:56:18.381Z,22.13
2019-01-20T15:58:47.190Z,21.43
2019-01-20T16:01:15.858Z,24.00
2019-01-20T16:03:44.507Z,22.97
2019-01-20T16:06:13.975Z,20.80
2019-01-20T16:08:42.627Z,19.60
2019-01-20T16:11:11.269Z,18.07
2019-01-20T16:13:40.001Z,18.40
2019-01-20T16:16:08.828Z,18.20
2019-01-20T16:18:39.062Z,16.50
2019-01-20T16:21:08.877Z,14.43
2019-01-20T16:23:37.503Z,18.23
2019-01-20T16:26:06.166Z,16.73
2019-01-20T16:28:34.939Z,15.00
2019-01-20T16:31:03.576Z,14.97
2019-01-20T16:33:32.223Z,14.70
2019-01-20T16:36:06.883Z,15.07
2019-01-20T16:38:38.771Z,15.67
2019-01-20T16:41:07.419Z,15.33
2019-01-20T16:43:56.903Z,15.40
2019-01-20T16:46:25.614Z,15.77
2019-01-20T16:48:54.394Z,17.63
2019-01-20T16:51:23.077Z,19.60
2019-01-20T16:53:51.737Z,19.70
2019-01-20T16:56:20.381Z,20.83
2019-01-20T16:58:51.426Z,19.60
2019-01-20T17:01:19.450Z,18.87
2019-01-20T17:03:48.133Z,22.23
2019-01-20T17:06:16.847Z,20.03
2019-01-20T17:08:45.504Z,20.93
2019-01-20T17:11:17.007Z,19.27
2019-01-20T17:13:50.136Z,21.10
2019-01-20T17:16:17.160Z,23.67
2019-01-20T17:18:49.179Z,20.23
2019-01-20T17:21:17.897Z,20.67
2019-01-20T17:23:48.967Z,19.90
2019-01-20T17:26:17.623Z,19.17
2019-01-20T17:28:46.358Z,16.53
2019-01-20T17:31:15.152Z,15.93
2019-01-20T17:33:43.839Z,17.67
2019-01-20T17:36:12.572Z,17.90
2019-01-20T17:38:41.328Z,18.17
2019-01-20T17:41:10.025Z,16.30
2019-01-20T17:43:38.765Z,15.53
2019-01-20T17:46:07.461Z,14.43
2019-01-20T17:48:36.177Z,13.00
2019-01-20T17:51:05.001Z,12.90
2019-01-20T17:53:33.652Z,18.55
2019-01-20T17:56:02.297Z,16.53
2019-01-20T17:58:31.019Z,15.90
2019-01-20T18:01:01.342Z,14.17
2019-01-20T18:03:29.997Z,14.47
2019-01-20T18:05:58.683Z,13.73
2019-01-20T18:08:27.967Z,13.50
2019-01-20T18:10:56.683Z,13.23
2019-01-20T18:13:25.369Z,16.67
2019-01-20T18:15:54.882Z,13.53
2019-01-20T18:18:23.654Z,17.30
2019-01-20T18:20:52.352Z,15.83
2019-01-20T18:23:21.037Z,13.90
2019-01-20T18:25:49.745Z,16.43
2019-01-20T18:28:18.526Z,13.53
2019-01-20T18:30:50.220Z,13.27
2019-01-20T18:33:18.896Z,13.23
2019-01-20T18:36:22.809Z,14.00
2019-01-20T18:39:11.300Z,13.07
2019-01-20T18:41:51.882Z,12.20
2019-01-20T18:44:32.776Z,10.73
2019-01-20T18:47:01.456Z,12.83
2019-01-20T18:49:30.247Z,11.93
2019-01-20T18:51:58.917Z,11.63
2019-01-20T18:54:27.639Z,11.47
2019-01-20T18:56:56.420Z,11.67
2019-01-20T18:59:27.996Z,11.70
2019-01-20T19:01:59.004Z,12.27
2019-01-20T19:04:32.104Z,37.80
2019-01-20T19:07:00.883Z,12.13
2019-01-20T19:09:36.026Z,9.43
2019-01-20T19:12:16.154Z,10.90
2019-01-20T19:14:48.681Z,9.33
2019-01-20T19:17:17.429Z,8.67
2019-01-20T19:19:46.191Z,8.97
2019-01-20T19:22:17.452Z,8.70
2019-01-20T19:24:52.263Z,8.10
2019-01-20T19:27:18.231Z,8.40
2019-01-20T19:29:47.892Z,8.47
2019-01-20T19:32:16.592Z,8.47
2019-01-20T19:34:46.437Z,7.93
2019-01-20T19:37:15.100Z,7.90
2019-01-20T19:39:50.521Z,8.00
2019-01-20T19:42:16.502Z,8.33
2019-01-20T19:44:45.164Z,12.30
2019-01-20T19:47:13.997Z,8.17
2019-01-20T19:49:42.734Z,10.00
2019-01-20T19:52:11.409Z,8.17
2019-01-20T19:54:40.131Z,11.10
2019-01-20T19:57:08.836Z,8.97
2019-01-20T19:59:37.488Z,8.67
2019-01-20T20:02:06.203Z,8.90
2019-01-20T20:04:34.861Z,9.17
2019-01-20T20:07:03.602Z,8.70
2019-01-20T20:09:32.278Z,10.30
2019-01-20T20:12:00.893Z,11.20
2019-01-20T20:14:29.603Z,11.90
2019-01-20T20:16:58.301Z,12.10
2019-01-20T20:19:26.977Z,12.43
2019-01-20T20:21:55.655Z,12.17
2019-01-20T20:24:25.551Z,12.83
2019-01-20T20:26:54.578Z,12.07
2019-01-20T20:29:24.791Z,12.50
2019-01-20T20:31:53.512Z,13.20
2019-01-20T20:34:22.221Z,14.47
2019-01-20T20:36:50.875Z,15.03
2019-01-20T20:39:19.659Z,14.63
2019-01-20T20:41:48.314Z,15.20
2019-01-20T20:44:18.897Z,15.90
2019-01-20T20:46:51.708Z,17.50
2019-01-20T20:49:20.360Z,15.83
2019-01-20T20:51:49.077Z,15.30
2019-01-20T20:54:17.838Z,14.93
2019-01-20T20:56:51.263Z,15.57
2019-01-20T20:59:19.997Z,11.73
2019-01-20T21:01:48.823Z,15.00
2019-01-20T21:04:17.544Z,14.30
2019-01-20T21:06:46.195Z,15.30
2019-01-20T21:09:16.481Z,14.87
2019-01-20T21:11:45.358Z,14.50
2019-01-20T21:14:14.008Z,15.73
2019-01-20T21:16:45.569Z,15.70
2019-01-20T21:19:14.235Z,17.03
2019-01-20T21:21:45.172Z,24.00
2019-01-20T21:24:13.899Z,18.47
2019-01-20T21:26:44.465Z,15.53
2019-01-20T21:29:12.943Z,16.23
2019-01-20T21:31:41.644Z,16.80
2019-01-20T21:34:10.315Z,15.67
2019-01-20T21:36:38.974Z,14.93
2019-01-20T21:39:07.776Z,15.10
2019-01-20T21:41:37.189Z,16.27
2019-01-20T21:44:06.672Z,15.77
2019-01-20T21:46:36.117Z,16.00
2019-01-20T21:49:05.542Z,16.40
2019-01-20T21:51:34.874Z,15.80
2019-01-20T21:54:04.273Z,16.17
2019-01-20T21:56:49.389Z,16.50
2019-01-20T22:05:24.462Z,15.67
2019-01-20T22:07:53.228Z,15.87
2019-01-20T22:10:23.361Z,21.97
2019-01-20T22:12:54.651Z,21.83
2019-01-20T22:15:23.052Z,18.40
2019-01-20T22:17:52.133Z,15.93
2019-01-20T22:20:22.233Z,16.47
2019-01-20T22:25:40.592Z,13.70
2019-01-20T22:28:09.245Z,13.10
2019-01-20T22:30:39.519Z,13.23
2019-01-20T22:33:08.239Z,14.10
2019-01-20T22:35:36.935Z,14.73
2019-01-20T22:38:05.629Z,15.33
2019-01-20T22:40:34.332Z,16.00
2019-01-20T22:43:05.323Z,15.03
2019-01-20T22:45:33.969Z,14.03
2019-01-20T22:48:02.732Z,15.03
2019-01-20T22:50:31.420Z,15.17
2019-01-20T22:53:00.146Z,15.17
2019-01-20T22:55:29.034Z,15.33
2019-01-20T22:57:57.769Z,16.03
2019-01-20T23:00:39.700Z,16.07
2019-01-20T23:03:08.428Z,16.50
2019-01-20T23:05:37.119Z,35.50
2019-01-20T23:08:05.875Z,28.87
2019-01-20T23:10:34.540Z,18.53
2019-01-20T23:13:03.261Z,17.30
2019-01-20T23:15:32.011Z,14.97
2019-01-20T23:18:00.675Z,14.50
2019-01-20T23:20:29.333Z,15.23
2019-01-20T23:22:58.020Z,15.00
2019-01-20T23:25:26.715Z,16.33
2019-01-20T23:27:55.543Z,15.80
2019-01-20T23:30:24.331Z,20.72
2019-01-20T23:32:53.045Z,16.37
2019-01-20T23:35:21.664Z,15.13
2019-01-20T23:37:50.397Z,15.77
2019-01-20T23:40:19.040Z,15.03
2019-01-20T23:42:47.700Z,16.10
2019-01-20T23:45:16.415Z,16.20
2019-01-20T23:47:48.116Z,15.33
2019-01-20T23:50:17.501Z,14.97
2019-01-20T23:52:46.287Z,16.77
2019-01-20T23:55:14.954Z,18.00
2019-01-20T23:57:43.601Z,18.30
